createdAt,value
2018-01-23T00:01:16.222Z,6.70
2018-01-23T00:03:45.262Z,6.70
2018-01-23T00:06:13.503Z,6.70
2018-01-23T00:08:41.756Z,6.70
2018-01-23T00:11:09.991Z,6.70
2018-01-23T00:13:38.320Z,6.70
2018-01-23T00:16:06.561Z,6.70
2018-01-23T00:18:34.879Z,6.70
2018-01-23T00:21:03.150Z,6.70
2018-01-23T00:23:31.378Z,6.70
2018-01-23T00:25:59.637Z,6.70
2018-01-23T00:28:28.680Z,6.80
2018-01-23T00:30:56.946Z,6.70
2018-01-23T00:33:25.191Z,6.70
2018-01-23T00:35:54.215Z,6.70
2018-01-23T00:38:22.461Z,6.70
2018-01-23T00:40:50.702Z,6.70
2018-01-23T00:43:18.938Z,6.70
2018-01-23T00:45:47.986Z,6.70
2018-01-23T00:48:16.238Z,6.70
2018-01-23T00:50:44.736Z,6.70
2018-01-23T00:53:13.060Z,6.70
2018-01-23T00:55:41.305Z,6.70
2018-01-23T00:58:09.596Z,6.80
2018-01-23T01:00:37.859Z,6.80
2018-01-23T01:03:06.107Z,6.80
2018-01-23T01:05:35.141Z,6.70
2018-01-23T01:08:03.386Z,6.70
2018-01-23T01:10:32.401Z,6.70
2018-01-23T01:13:00.719Z,6.70
2018-01-23T01:15:29.020Z,6.80
2018-01-23T01:17:57.257Z,6.70
2018-01-23T01:20:25.517Z,6.70
2018-01-23T01:22:53.763Z,6.60
2018-01-23T01:25:22.002Z,6.60
2018-01-23T01:27:50.290Z,6.60
2018-01-23T01:30:18.538Z,6.50
2018-01-23T01:32:46.902Z,6.50
2018-01-23T01:35:15.118Z,6.50
2018-01-23T01:37:43.371Z,6.50
2018-01-23T01:40:12.401Z,6.50
2018-01-23T01:42:40.662Z,6.50
2018-01-23T01:45:08.984Z,6.50
2018-01-23T01:47:37.263Z,6.50
2018-01-23T01:50:05.538Z,6.60
2018-01-23T01:52:33.786Z,6.50
2018-01-23T01:55:02.032Z,6.40
2018-01-23T01:57:30.279Z,6.50
2018-01-23T01:59:58.522Z,6.50
2018-01-23T02:02:26.802Z,6.60
2018-01-23T02:04:55.076Z,6.50
2018-01-23T02:07:24.104Z,6.40
2018-01-23T02:09:52.389Z,6.40
2018-01-23T02:12:20.679Z,6.30
2018-01-23T02:14:48.910Z,6.30
2018-01-23T02:17:17.945Z,6.40
2018-01-23T02:19:46.225Z,6.30
2018-01-23T02:22:14.485Z,6.30
2018-01-23T02:24:42.778Z,6.20
2018-01-23T02:27:11.092Z,6.20
2018-01-23T02:29:39.319Z,6.30
2018-01-23T02:32:08.504Z,6.40
2018-01-23T02:34:36.829Z,6.30
2018-01-23T02:37:05.107Z,6.30
2018-01-23T02:39:33.378Z,6.40
2018-01-23T02:42:01.745Z,6.40
2018-01-23T02:44:30.754Z,6.30
2018-01-23T02:46:59.049Z,6.30
2018-01-23T02:49:27.297Z,6.30
2018-01-23T02:51:56.301Z,6.30
2018-01-23T02:54:25.434Z,6.20
2018-01-23T02:56:53.676Z,6.20
2018-01-23T02:59:22.991Z,6.20
2018-01-23T03:01:51.298Z,6.20
2018-01-23T03:04:19.558Z,6.30
2018-01-23T03:06:47.800Z,6.30
2018-01-23T03:09:16.058Z,6.40
2018-01-23T03:11:44.298Z,6.40
2018-01-23T03:14:12.549Z,6.40
2018-01-23T03:16:41.601Z,6.50
2018-01-23T03:19:09.866Z,6.50
2018-01-23T03:21:38.147Z,6.50
2018-01-23T03:24:06.413Z,6.50
2018-01-23T03:26:34.679Z,6.60
2018-01-23T03:29:03.694Z,6.50
2018-01-23T03:31:31.983Z,6.40
2018-01-23T03:34:00.261Z,6.50
2018-01-23T03:36:28.563Z,6.50
2018-01-23T03:38:56.819Z,6.70
2018-01-23T03:41:25.104Z,6.80
2018-01-23T03:43:53.364Z,6.80
2018-01-23T03:46:21.601Z,6.80
2018-01-23T03:48:49.983Z,6.90
2018-01-23T03:51:18.202Z,6.90
2018-01-23T03:53:46.458Z,7.00
2018-01-23T03:56:14.738Z,6.90
2018-01-23T03:58:43.748Z,7.00
2018-01-23T04:01:12.777Z,7.00
2018-01-23T04:03:41.017Z,7.00
2018-01-23T04:06:10.057Z,6.90
2018-01-23T04:08:38.349Z,6.90
2018-01-23T04:11:06.619Z,6.90
2018-01-23T04:13:34.897Z,6.90
2018-01-23T04:16:03.309Z,6.90
2018-01-23T04:18:31.571Z,6.90
2018-01-23T04:20:59.942Z,6.90
2018-01-23T04:23:28.179Z,6.90
2018-01-23T04:25:57.194Z,6.90
2018-01-23T04:28:26.200Z,7.00
2018-01-23T04:30:54.515Z,6.90
2018-01-23T04:33:22.747Z,7.00
2018-01-23T04:35:52.589Z,6.90
2018-01-23T04:38:20.881Z,6.90
2018-01-23T04:40:50.145Z,6.90
2018-01-23T04:43:19.174Z,6.90
2018-01-23T04:45:47.438Z,6.80
2018-01-23T04:48:15.713Z,6.90
2018-01-23T04:50:44.725Z,6.90
2018-01-23T04:53:12.970Z,6.90
2018-01-23T04:55:41.994Z,6.90
2018-01-23T04:58:10.256Z,6.90
2018-01-23T05:00:39.312Z,6.80
2018-01-23T05:03:07.560Z,6.80
2018-01-23T05:05:35.814Z,6.90
2018-01-23T05:08:04.844Z,6.80
2018-01-23T05:10:33.106Z,6.80
2018-01-23T05:13:01.411Z,6.70
2018-01-23T05:15:29.693Z,6.70
2018-01-23T05:17:57.988Z,6.70
2018-01-23T05:20:26.221Z,6.50
2018-01-23T05:22:54.503Z,6.60
2018-01-23T05:25:23.542Z,6.60
2018-01-23T05:27:59.155Z,6.60
2018-01-23T05:30:28.147Z,6.70
2018-01-23T05:32:57.183Z,6.70
2018-01-23T05:35:25.432Z,6.70
2018-01-23T05:37:54.441Z,6.80
2018-01-23T05:40:22.699Z,6.80
2018-01-23T05:42:51.770Z,6.70
2018-01-23T05:45:20.019Z,6.60
2018-01-23T05:47:48.273Z,6.70
2018-01-23T05:50:16.525Z,6.60
2018-01-23T05:52:45.566Z,6.70
2018-01-23T05:55:13.816Z,6.70
2018-01-23T05:57:42.838Z,6.60
2018-01-23T06:00:11.086Z,6.60
2018-01-23T06:02:40.229Z,6.70
2018-01-23T06:05:08.479Z,6.70
2018-01-23T06:07:36.740Z,6.70
2018-01-23T06:10:05.773Z,6.60
2018-01-23T06:12:33.998Z,6.60
2018-01-23T06:15:02.335Z,6.60
2018-01-23T06:17:30.577Z,6.50
2018-01-23T06:19:59.601Z,6.60
2018-01-23T06:22:27.896Z,6.60
2018-01-23T06:24:56.197Z,6.60
2018-01-23T06:27:24.628Z,6.70
2018-01-23T06:29:52.899Z,6.70
2018-01-23T06:32:21.916Z,6.80
2018-01-23T06:34:50.217Z,6.80
2018-01-23T06:37:18.537Z,6.90
2018-01-23T06:39:46.777Z,6.90
2018-01-23T06:42:15.023Z,6.90
2018-01-23T06:44:44.100Z,6.90
2018-01-23T06:47:12.321Z,6.90
2018-01-23T06:49:40.616Z,7.00
2018-01-23T06:52:08.898Z,7.00
2018-01-23T06:54:37.168Z,6.90
2018-01-23T06:57:05.425Z,7.00
2018-01-23T06:59:34.459Z,7.00
2018-01-23T07:02:02.705Z,7.00
2018-01-23T07:04:30.967Z,7.00
2018-01-23T07:06:59.976Z,7.00
2018-01-23T07:09:29.020Z,7.00
2018-01-23T07:11:57.336Z,7.00
2018-01-23T07:14:25.575Z,6.90
2018-01-23T07:16:53.806Z,6.90
2018-01-23T07:19:22.835Z,7.00
2018-01-23T07:21:51.081Z,6.90
2018-01-23T07:24:20.097Z,6.90
2018-01-23T07:26:49.130Z,7.00
2018-01-23T07:29:17.381Z,7.00
2018-01-23T07:31:45.639Z,6.90
2018-01-23T07:34:14.657Z,6.90
2018-01-23T07:36:42.918Z,6.90
2018-01-23T07:39:11.921Z,6.90
2018-01-23T07:41:40.233Z,6.90
2018-01-23T07:44:08.554Z,7.00
2018-01-23T07:46:36.789Z,7.00
2018-01-23T07:49:05.118Z,7.00
2018-01-23T07:51:33.360Z,7.10
2018-01-23T07:54:01.611Z,7.10
2018-01-23T07:56:29.917Z,7.10
2018-01-23T07:58:58.162Z,7.10
2018-01-23T08:01:27.200Z,7.10
2018-01-23T08:03:55.465Z,7.10
2018-01-23T08:06:23.758Z,6.90
2018-01-23T08:08:51.985Z,7.00
2018-01-23T08:11:20.320Z,7.00
2018-01-23T08:13:48.561Z,6.80
2018-01-23T08:16:16.854Z,6.70
2018-01-23T08:18:45.090Z,6.70
2018-01-23T08:21:13.387Z,6.60
2018-01-23T08:23:41.670Z,6.60
2018-01-23T08:26:10.732Z,6.60
2018-01-23T08:28:38.979Z,6.60
2018-01-23T08:31:07.243Z,6.50
2018-01-23T08:33:35.598Z,6.60
2018-01-23T08:36:03.843Z,6.50
2018-01-23T08:38:32.111Z,6.60
2018-01-23T08:41:00.394Z,6.60
2018-01-23T08:43:28.717Z,6.60
2018-01-23T08:45:56.933Z,6.60
2018-01-23T08:48:25.242Z,6.70
2018-01-23T08:50:53.485Z,6.90
2018-01-23T08:53:21.762Z,6.90
2018-01-23T08:55:50.771Z,7.20
2018-01-23T08:58:19.081Z,7.10
2018-01-23T09:00:47.327Z,7.20
2018-01-23T09:03:15.584Z,7.30
2018-01-23T09:05:44.597Z,7.30
2018-01-23T09:08:13.614Z,7.30
2018-01-23T09:10:41.897Z,7.30
2018-01-23T09:13:11.149Z,7.50
2018-01-23T09:15:39.396Z,7.50
2018-01-23T09:18:07.669Z,7.50
2018-01-23T09:20:35.986Z,7.60
2018-01-23T09:23:04.237Z,7.60
2018-01-23T09:25:32.489Z,7.50
2018-01-23T09:28:00.747Z,7.50
2018-01-23T09:30:29.759Z,7.60
2018-01-23T09:32:58.067Z,7.60
2018-01-23T09:35:26.361Z,7.60
2018-01-23T09:37:54.607Z,7.60
2018-01-23T09:40:22.876Z,7.50
2018-01-23T09:42:51.193Z,7.60
2018-01-23T09:45:19.433Z,7.60
2018-01-23T09:47:47.692Z,7.60
2018-01-23T09:50:16.031Z,7.60
2018-01-23T09:52:44.273Z,7.70
2018-01-23T09:55:13.435Z,7.70
2018-01-23T09:57:41.681Z,7.70
2018-01-23T10:00:09.965Z,7.70
2018-01-23T10:02:38.226Z,7.80
2018-01-23T10:05:06.500Z,7.80
2018-01-23T10:07:34.845Z,7.90
2018-01-23T10:10:04.702Z,8.00
2018-01-23T10:12:32.947Z,8.00
2018-01-23T10:15:02.734Z,7.90
2018-01-23T10:17:31.785Z,7.90
2018-01-23T10:20:00.828Z,7.90
2018-01-23T10:22:29.074Z,7.90
2018-01-23T10:24:57.337Z,7.90
2018-01-23T10:27:26.343Z,8.00
2018-01-23T10:29:54.599Z,8.00
2018-01-23T10:32:22.850Z,8.00
2018-01-23T10:34:51.265Z,8.10
2018-01-23T10:37:19.456Z,8.10
2018-01-23T10:39:48.492Z,8.10
2018-01-23T10:42:16.776Z,8.10
2018-01-23T10:44:45.076Z,8.00
2018-01-23T10:47:13.306Z,8.10
2018-01-23T10:49:41.574Z,8.20
2018-01-23T10:52:10.590Z,8.30
2018-01-23T10:54:38.856Z,8.30
2018-01-23T10:57:07.886Z,8.30
2018-01-23T10:59:36.127Z,8.30
2018-01-23T11:02:05.153Z,8.30
2018-01-23T11:04:34.309Z,8.30
2018-01-23T11:07:02.656Z,8.30
2018-01-23T11:09:30.930Z,8.30
2018-01-23T11:11:59.190Z,8.40
2018-01-23T11:14:27.508Z,8.50
2018-01-23T11:16:55.764Z,8.60
2018-01-23T11:19:24.051Z,8.60
2018-01-23T11:21:52.306Z,8.50
2018-01-23T11:24:20.560Z,8.60
2018-01-23T11:26:48.891Z,8.60
2018-01-23T11:29:17.158Z,8.60
2018-01-23T11:31:45.423Z,8.60
2018-01-23T11:34:13.765Z,8.50
2018-01-23T11:36:42.011Z,8.50
2018-01-23T11:39:10.305Z,8.40
2018-01-23T11:41:38.609Z,8.40
2018-01-23T11:44:06.825Z,8.50
2018-01-23T11:46:35.118Z,8.50
2018-01-23T11:49:03.520Z,8.50
2018-01-23T11:51:31.825Z,8.60
2018-01-23T11:54:00.031Z,8.50
2018-01-23T11:56:29.066Z,8.50
2018-01-23T11:58:57.332Z,8.50
2018-01-23T12:01:25.648Z,8.70
2018-01-23T12:03:53.894Z,8.70
2018-01-23T12:06:22.218Z,8.60
2018-01-23T12:08:50.482Z,8.70
2018-01-23T12:11:18.741Z,8.60
2018-01-23T12:13:47.017Z,8.60
2018-01-23T12:16:16.029Z,8.80
2018-01-23T12:18:44.320Z,8.70
2018-01-23T12:21:12.829Z,8.90
2018-01-23T12:23:41.118Z,9.00
2018-01-23T12:26:09.443Z,9.10
2018-01-23T12:28:37.699Z,9.20
2018-01-23T12:31:06.019Z,9.30
2018-01-23T12:33:34.351Z,9.40
2018-01-23T12:36:03.378Z,9.40
2018-01-23T12:38:31.636Z,9.40
2018-01-23T12:41:00.638Z,9.50
2018-01-23T12:43:28.899Z,9.40
2018-01-23T12:45:57.916Z,9.30
2018-01-23T12:48:26.325Z,9.30
2018-01-23T12:50:54.583Z,9.30
2018-01-23T12:53:23.830Z,9.10
2018-01-23T12:55:52.086Z,8.90
2018-01-23T12:58:20.341Z,8.80
2018-01-23T13:00:48.683Z,8.80
2018-01-23T13:03:16.930Z,8.80
2018-01-23T13:05:45.165Z,8.80
2018-01-23T13:08:14.215Z,8.90
2018-01-23T13:10:42.459Z,8.90
2018-01-23T13:13:11.486Z,9.20
2018-01-23T13:15:39.742Z,9.20
2018-01-23T13:18:08.053Z,9.40
2018-01-23T13:20:36.367Z,9.60
2018-01-23T13:23:05.375Z,9.90
2018-01-23T13:25:34.411Z,10.00
2018-01-23T13:28:02.656Z,9.90
2018-01-23T13:30:31.677Z,9.90
2018-01-23T13:32:59.972Z,9.90
2018-01-23T13:35:28.257Z,9.90
2018-01-23T13:37:56.510Z,9.80
2018-01-23T13:40:25.641Z,9.70
2018-01-23T13:42:53.894Z,9.70
2018-01-23T13:45:22.228Z,9.80
2018-01-23T13:47:51.403Z,9.70
2018-01-23T13:50:19.716Z,9.70
2018-01-23T13:52:47.937Z,9.60
2018-01-23T13:55:16.198Z,9.60
2018-01-23T13:57:45.243Z,9.40
2018-01-23T14:00:13.514Z,9.40
2018-01-23T14:02:41.832Z,9.30
2018-01-23T14:05:10.065Z,9.40
2018-01-23T14:07:38.305Z,9.50
2018-01-23T14:10:07.350Z,9.60
2018-01-23T14:12:35.600Z,9.50
2018-01-23T14:15:03.870Z,9.50
2018-01-23T14:17:33.012Z,9.40
2018-01-23T14:20:01.283Z,9.40
2018-01-23T14:22:29.518Z,9.40
2018-01-23T14:24:59.283Z,9.40
2018-01-23T14:27:27.521Z,9.40
2018-01-23T14:29:56.529Z,9.30
2018-01-23T14:32:25.665Z,9.30
2018-01-23T14:34:53.908Z,9.30
2018-01-23T14:37:22.930Z,9.30
2018-01-23T14:39:51.214Z,9.20
2018-01-23T14:42:19.499Z,9.20
2018-01-23T14:44:47.745Z,9.20
2018-01-23T14:47:16.770Z,9.20
2018-01-23T14:49:45.011Z,9.10
2018-01-23T14:52:14.030Z,9.10
2018-01-23T14:54:42.274Z,9.10
2018-01-23T14:57:10.612Z,9.00
2018-01-23T14:59:38.852Z,9.00
2018-01-23T15:02:07.879Z,9.00
2018-01-23T15:04:36.280Z,9.00
2018-01-23T15:07:04.556Z,9.00
2018-01-23T15:09:32.819Z,9.00
2018-01-23T15:12:01.101Z,8.90
2018-01-23T15:14:29.337Z,8.90
2018-01-23T15:16:57.608Z,8.90
2018-01-23T15:19:25.870Z,8.90
2018-01-23T15:21:54.113Z,9.00
2018-01-23T15:24:22.414Z,9.00
2018-01-23T15:26:50.797Z,8.90
2018-01-23T15:29:19.041Z,9.00
2018-01-23T15:31:47.315Z,9.00
2018-01-23T15:34:16.318Z,8.90
2018-01-23T15:36:45.353Z,9.00
2018-01-23T15:41:54.357Z,9.00
2018-01-23T15:44:22.626Z,9.00
2018-01-23T15:46:50.876Z,8.90
2018-01-23T15:49:19.126Z,8.90
2018-01-23T15:51:47.438Z,9.00
2018-01-23T15:54:15.707Z,8.90
2018-01-23T15:56:43.966Z,8.90
2018-01-23T15:59:12.234Z,8.80
2018-01-23T16:01:41.240Z,8.70
2018-01-23T16:04:10.273Z,8.70
2018-01-23T16:06:38.507Z,8.70
2018-01-23T16:09:07.529Z,8.70
2018-01-23T16:11:35.833Z,8.70
2018-01-23T16:14:04.086Z,8.70
2018-01-23T16:16:32.390Z,8.60
2018-01-23T16:19:00.675Z,8.60
2018-01-23T16:21:28.914Z,8.50
2018-01-23T16:23:57.179Z,8.50
2018-01-23T16:26:25.409Z,8.50
2018-01-23T16:28:53.684Z,8.40
2018-01-23T16:31:21.957Z,8.50
2018-01-23T16:33:50.380Z,8.50
2018-01-23T16:36:18.581Z,8.40
2018-01-23T16:38:47.626Z,8.30
2018-01-23T16:41:16.556Z,8.30
2018-01-23T16:43:44.781Z,8.40
2018-01-23T16:46:13.028Z,8.50
2018-01-23T16:48:41.278Z,8.50
2018-01-23T16:51:09.526Z,8.40
2018-01-23T16:53:37.826Z,8.30
2018-01-23T16:56:06.146Z,8.30
2018-01-23T16:58:34.403Z,8.30
2018-01-23T17:01:02.769Z,8.20
2018-01-23T17:03:31.054Z,8.20
2018-01-23T17:05:59.305Z,8.30
2018-01-23T17:08:27.545Z,8.30
2018-01-23T17:10:55.814Z,8.40
2018-01-23T17:13:24.162Z,8.40
2018-01-23T17:15:52.415Z,8.40
2018-01-23T17:18:20.658Z,8.40
2018-01-23T17:20:50.443Z,8.40
2018-01-23T17:23:18.671Z,8.40
2018-01-23T17:25:47.723Z,8.50
2018-01-23T17:28:15.966Z,8.40
2018-01-23T17:30:44.244Z,8.50
2018-01-23T17:33:13.998Z,8.50
2018-01-23T17:35:42.703Z,8.50
2018-01-23T17:38:10.961Z,8.50
2018-01-23T17:40:39.245Z,8.50
2018-01-23T17:43:07.560Z,8.60
2018-01-23T17:45:35.799Z,8.60
2018-01-23T17:48:04.045Z,8.60
2018-01-23T17:50:33.078Z,8.60
2018-01-23T17:53:01.314Z,8.50
2018-01-23T17:55:30.394Z,8.60
2018-01-23T17:57:58.635Z,8.60
2018-01-23T18:00:28.699Z,8.60
2018-01-23T18:02:56.938Z,8.60
2018-01-23T18:05:25.216Z,8.70
2018-01-23T18:07:53.471Z,8.80
2018-01-23T18:10:21.814Z,8.80
2018-01-23T18:12:50.035Z,8.80
2018-01-23T18:15:18.310Z,8.80
2018-01-23T18:17:47.618Z,8.70
2018-01-23T18:20:16.606Z,8.70
2018-01-23T18:22:45.641Z,8.70
2018-01-23T18:25:13.917Z,8.70
2018-01-23T18:27:42.211Z,8.70
2018-01-23T18:30:10.471Z,8.80
2018-01-23T18:32:38.721Z,8.70
2018-01-23T18:35:07.130Z,8.80
2018-01-23T18:37:35.413Z,8.70
2018-01-23T18:40:03.689Z,8.70
2018-01-23T18:42:31.945Z,8.70
2018-01-23T18:45:00.957Z,8.70
2018-01-23T18:47:29.253Z,8.70
2018-01-23T18:49:57.499Z,8.70
2018-01-23T18:52:26.537Z,8.50
2018-01-23T18:54:54.793Z,8.50
2018-01-23T18:57:23.108Z,8.50
2018-01-23T18:59:51.346Z,8.40
2018-01-23T19:02:19.662Z,8.50
2018-01-23T19:04:47.907Z,8.40
2018-01-23T19:07:16.930Z,8.50
2018-01-23T19:09:45.218Z,8.40
2018-01-23T19:12:13.509Z,8.40
2018-01-23T19:14:41.750Z,8.40
2018-01-23T19:17:10.034Z,8.40
2018-01-23T19:19:39.046Z,8.40
2018-01-23T19:22:07.284Z,8.40
2018-01-23T19:24:35.614Z,8.40
2018-01-23T19:27:03.914Z,8.30
2018-01-23T19:29:32.173Z,8.30
2018-01-23T19:32:01.009Z,8.40
2018-01-23T19:34:29.271Z,8.30
2018-01-23T19:36:57.597Z,8.30
2018-01-23T19:39:25.814Z,8.40
2018-01-23T19:41:54.106Z,8.30
2018-01-23T19:44:22.445Z,8.30
2018-01-23T19:46:50.778Z,8.30
2018-01-23T19:49:19.029Z,8.30
2018-01-23T19:51:47.303Z,8.30
2018-01-23T19:54:15.596Z,8.30
2018-01-23T19:56:43.842Z,8.30
2018-01-23T19:59:12.141Z,8.40
2018-01-23T20:01:40.426Z,8.40
2018-01-23T20:04:08.785Z,8.40
2018-01-23T20:06:37.028Z,8.30
2018-01-23T20:09:05.313Z,8.30
2018-01-23T20:11:33.647Z,8.40
2018-01-23T20:14:01.888Z,8.30
2018-01-23T20:16:30.197Z,8.40
2018-01-23T20:18:58.450Z,8.30
2018-01-23T20:21:27.462Z,8.40
2018-01-23T20:23:55.718Z,8.40
2018-01-23T20:26:24.762Z,8.30
2018-01-23T20:28:53.013Z,8.30
2018-01-23T20:31:21.482Z,8.30
2018-01-23T20:33:50.498Z,8.40
2018-01-23T20:36:18.807Z,8.40
2018-01-23T20:38:47.050Z,8.50
2018-01-23T20:41:16.072Z,8.50
2018-01-23T20:43:44.318Z,8.50
2018-01-23T20:46:13.334Z,8.50
2018-01-23T20:48:42.082Z,8.50
2018-01-23T20:51:10.502Z,8.50
2018-01-23T20:53:39.569Z,8.60
2018-01-23T20:56:07.922Z,8.50
2018-01-23T20:58:36.198Z,8.50
2018-01-23T21:01:04.492Z,8.50
2018-01-23T21:03:32.729Z,8.50
2018-01-23T21:06:00.991Z,8.50
2018-01-23T21:08:30.001Z,8.60
2018-01-23T21:10:58.292Z,8.60
2018-01-23T21:13:26.539Z,8.50
2018-01-23T21:15:54.798Z,8.60
2018-01-23T21:18:23.034Z,8.60
2018-01-23T21:20:51.329Z,8.60
2018-01-23T21:23:19.569Z,8.50
2018-01-23T21:25:48.597Z,8.40
2018-01-23T21:28:16.861Z,8.40
2018-01-23T21:30:45.894Z,8.50
2018-01-23T21:33:14.145Z,8.40
2018-01-23T21:35:42.829Z,8.40
2018-01-23T21:38:11.085Z,8.40
2018-01-23T21:40:40.112Z,8.30
2018-01-23T21:43:08.355Z,8.30
2018-01-23T21:45:36.620Z,8.30
2018-01-23T21:48:04.913Z,8.30
2018-01-23T21:50:33.416Z,8.30
2018-01-23T21:53:01.874Z,8.20
2018-01-23T21:55:30.497Z,8.30
2018-01-23T21:57:59.563Z,8.30
2018-01-23T22:00:29.640Z,8.40
2018-01-23T22:02:58.183Z,8.40
2018-01-23T22:05:26.637Z,8.30
2018-01-23T22:07:55.044Z,8.40
2018-01-23T22:10:23.303Z,8.40
2018-01-23T22:12:51.549Z,8.50
2018-01-23T22:15:19.810Z,8.50
2018-01-23T22:17:48.817Z,8.50
2018-01-23T22:20:17.127Z,8.50
2018-01-23T22:22:45.365Z,8.50
2018-01-23T22:25:14.389Z,8.50
2018-01-23T22:27:42.639Z,8.50
2018-01-23T22:30:11.679Z,8.60
2018-01-23T22:32:39.926Z,8.60
2018-01-23T22:35:08.951Z,8.50
2018-01-23T22:37:38.026Z,8.50
2018-01-23T22:40:06.280Z,8.60
2018-01-23T22:42:34.676Z,8.50
2018-01-23T22:45:03.703Z,8.50
2018-01-23T22:47:32.011Z,8.50
2018-01-23T22:50:00.274Z,8.50
2018-01-23T22:52:28.517Z,8.50
2018-01-23T22:54:57.649Z,8.60
2018-01-23T22:57:26.073Z,8.50
2018-01-23T22:59:54.436Z,8.60
2018-01-23T23:02:22.665Z,8.50
2018-01-23T23:04:51.753Z,8.60
2018-01-23T23:07:19.936Z,8.60
2018-01-23T23:09:49.765Z,8.60
2018-01-23T23:12:18.106Z,8.60
2018-01-23T23:14:46.352Z,8.60
2018-01-23T23:17:14.629Z,8.60
2018-01-23T23:19:42.883Z,8.60
2018-01-23T23:22:11.889Z,8.70
2018-01-23T23:24:40.146Z,8.70
2018-01-23T23:27:09.153Z,8.80
2018-01-23T23:29:38.326Z,8.70
2018-01-23T23:32:06.574Z,8.80
2018-01-23T23:34:34.851Z,8.70
2018-01-23T23:37:03.585Z,8.80
2018-01-23T23:39:31.885Z,8.80
2018-01-23T23:42:00.672Z,8.70
2018-01-23T23:44:29.678Z,8.80
2018-01-23T23:46:58.718Z,8.80
2018-01-23T23:49:27.006Z,8.80
2018-01-23T23:51:55.283Z,8.80
2018-01-23T23:54:23.529Z,8.70
2018-01-23T23:56:51.838Z,8.70
2018-01-23T23:59:20.136Z,8.80
